Time;durP1;ratioP1;P1;durP2;ratioP2;P2;SDS_P1;SDS_P2;PMS_P1;PMS_P2;Temp;Humidity;BMP_temperature;BMP_pressure;BME280_temperature;BME280_humidity;BME280_pressure;Samples;Min_cycle;Max_cycle;Signal;HPM_P1;HPM_P2
2022/01/10 00:02:26;;;;;;;1.80;0.90;;;;;;;;;;5048235;28;20225;-50
2022/01/10 00:04:52;;;;;;;1.67;0.80;;;;;;;;;;5041946;28;20192;-50
2022/01/10 00:07:18;;;;;;;1.20;0.90;;;;;;;;;;5037164;28;20214;-50
2022/01/10 00:09:44;;;;;;;2.15;0.80;;;;;;;;;;5036480;28;20551;-50
2022/01/10 00:12:10;;;;;;;2.22;1.23;;;;;;;;;;5027985;28;20485;-50
2022/01/10 00:14:36;;;;;;;0.90;0.80;;;;;;;;;;5041701;28;20200;-50
2022/01/10 00:17:04;;;;;;;1.30;0.80;;;;;;;;;;5037727;28;20238;-50
2022/01/10 00:19:30;;;;;;;1.15;0.90;;;;;;;;;;5041828;28;20202;-50
2022/01/10 00:21:56;;;;;;;0.93;0.80;;;;;;;;;;5033608;28;20187;-50
2022/01/10 00:24:22;;;;;;;0.80;0.80;;;;;;;;;;5031526;28;20223;-50
2022/01/10 00:26:48;;;;;;;0.95;0.85;;;;;;;;;;5038372;28;20603;-50
2022/01/10 00:29:14;;;;;;;1.02;0.63;;;;;;;;;;5044735;28;20179;-49
2022/01/10 00:31:40;;;;;;;1.23;1.00;;;;;;;;;;5044228;28;20178;-50
2022/01/10 00:34:06;;;;;;;0.90;0.80;;;;;;;;;;5035817;28;20179;-50
2022/01/10 00:36:32;;;;;;;0.90;0.90;;;;;;;;;;5034793;28;20464;-50
2022/01/10 00:38:58;;;;;;;1.90;0.80;;;;;;;;;;5042363;28;20175;-50
2022/01/10 00:41:25;;;;;;;1.25;0.80;;;;;;;;;;5039596;28;20767;-50
2022/01/10 00:43:51;;;;;;;2.15;0.63;;;;;;;;;;5046586;28;20187;-50
2022/01/10 00:46:17;;;;;;;1.83;0.88;;;;;;;;;;5039808;28;20471;-50
2022/01/10 00:48:43;;;;;;;0.75;0.75;;;;;;;;;;5022903;28;20660;-50
2022/01/10 00:51:09;;;;;;;1.92;0.68;;;;;;;;;;5031514;28;20180;-50
2022/01/10 00:53:36;;;;;;;1.00;0.90;;;;;;;;;;5032977;28;20187;-50
2022/01/10 00:56:02;;;;;;;1.00;0.82;;;;;;;;;;5040962;28;20175;-49
2022/01/10 00:58:28;;;;;;;1.02;0.90;;;;;;;;;;5028089;28;20568;-50
2022/01/10 01:00:54;;;;;;;1.67;0.88;;;;;;;;;;5040314;28;20310;-50
2022/01/10 01:03:20;;;;;;;1.20;0.80;;;;;;;;;;5032142;28;20508;-50
2022/01/10 01:05:46;;;;;;;0.93;0.80;;;;;;;;;;5031790;28;20342;-49
2022/01/10 01:08:13;;;;;;;1.17;0.80;;;;;;;;;;5032623;28;20605;-50
2022/01/10 01:13:38;;;;;;;0.80;0.80;;;;;;;;;;5038784;28;20179;-49
2022/01/10 01:24:04;;;;;;;0.82;0.75;;;;;;;;;;5048335;28;20221;-50
2022/01/10 01:26:34;;;;;;;1.13;1.02;;;;;;;;;;5042549;28;20198;-50
2022/01/10 01:29:01;;;;;;;1.13;0.82;;;;;;;;;;5027542;28;20194;-50
2022/01/10 01:31:27;;;;;;;1.13;0.73;;;;;;;;;;5038628;28;20175;-49
2022/01/10 01:33:53;;;;;;;1.27;0.60;;;;;;;;;;5028193;28;20230;-51
2022/01/10 01:36:25;;;;;;;0.77;0.73;;;;;;;;;;5031496;28;20532;-50
2022/01/10 01:38:51;;;;;;;0.85;0.85;;;;;;;;;;5041905;28;20464;-50
2022/01/10 01:41:34;;;;;;;0.90;0.90;;;;;;;;;;5042396;28;20799;-50
2022/01/10 01:44:00;;;;;;;0.80;0.63;;;;;;;;;;5049327;28;20171;-50
2022/01/10 01:46:26;;;;;;;1.23;0.95;;;;;;;;;;5039084;28;20302;-50
2022/01/10 01:48:53;;;;;;;1.05;0.80;;;;;;;;;;5022091;28;20233;-50
2022/01/10 01:51:20;;;;;;;0.73;0.70;;;;;;;;;;5035079;28;20409;-49
2022/01/10 01:53:46;;;;;;;1.30;0.90;;;;;;;;;;5042963;28;20187;-50
2022/01/10 01:56:13;;;;;;;1.73;0.70;;;;;;;;;;5037686;28;20229;-50
2022/01/10 01:58:39;;;;;;;0.70;0.70;;;;;;;;;;5036151;28;20198;-49
2022/01/10 02:01:06;;;;;;;0.65;0.63;;;;;;;;;;5041188;28;20888;-49
2022/01/10 02:03:38;;;;;;;1.10;0.77;;;;;;;;;;5029949;28;20207;-49
2022/01/10 02:06:04;;;;;;;0.98;0.70;;;;;;;;;;5021866;28;20201;-49
2022/01/10 02:08:30;;;;;;;0.90;0.80;;;;;;;;;;5034691;28;20618;-50
2022/01/10 02:10:56;;;;;;;0.75;0.70;;;;;;;;;;5047265;28;20274;-50
2022/01/10 02:13:22;;;;;;;0.85;0.80;;;;;;;;;;5037253;28;20194;-50
2022/01/10 02:15:56;;;;;;;0.70;0.55;;;;;;;;;;5026057;28;20210;-50
2022/01/10 02:18:22;;;;;;;0.70;0.70;;;;;;;;;;5031681;28;20753;-50
2022/01/10 02:20:48;;;;;;;1.17;0.93;;;;;;;;;;5043941;28;20183;-50
2022/01/10 02:23:15;;;;;;;1.27;0.82;;;;;;;;;;5027086;28;20168;-49
2022/01/10 02:25:41;;;;;;;1.08;0.80;;;;;;;;;;5043546;28;20636;-50
2022/01/10 02:28:07;;;;;;;0.63;0.52;;;;;;;;;;5028335;28;20218;-50
2022/01/10 02:30:34;;;;;;;0.80;0.80;;;;;;;;;;5030246;28;20180;-50
2022/01/10 02:33:01;;;;;;;0.90;0.82;;;;;;;;;;5044395;28;20675;-49
2022/01/10 02:35:32;;;;;;;0.70;0.65;;;;;;;;;;5038707;28;20191;-50
2022/01/10 02:37:58;;;;;;;0.80;0.70;;;;;;;;;;5037173;28;20183;-50
2022/01/10 02:40:27;;;;;;;0.93;0.85;;;;;;;;;;5039090;28;20486;-50
2022/01/10 02:42:53;;;;;;;0.68;0.65;;;;;;;;;;5039589;28;20187;-50
2022/01/10 02:45:20;;;;;;;1.13;0.82;;;;;;;;;;5026827;28;20234;-50
2022/01/10 02:47:47;;;;;;;1.05;0.90;;;;;;;;;;5037171;28;20461;-49
2022/01/10 02:50:14;;;;;;;0.73;0.68;;;;;;;;;;5030835;28;20250;-49
2022/01/10 02:52:40;;;;;;;0.80;0.80;;;;;;;;;;5026260;28;20211;-50
2022/01/10 02:55:08;;;;;;;0.93;0.85;;;;;;;;;;5041167;28;20183;-50
2022/01/10 02:57:34;;;;;;;0.70;0.70;;;;;;;;;;5037183;28;20192;-50
2022/01/10 03:00:01;;;;;;;1.60;0.88;;;;;;;;;;5032651;28;20218;-50
2022/01/10 03:02:31;;;;;;;1.20;0.85;;;;;;;;;;5038190;28;20226;-50
2022/01/10 03:04:57;;;;;;;1.15;0.80;;;;;;;;;;5042494;28;20175;-50
2022/01/10 03:07:24;;;;;;;0.60;0.60;;;;;;;;;;5042549;28;20825;-50
2022/01/10 03:09:51;;;;;;;0.82;0.80;;;;;;;;;;5050831;28;20203;-50
2022/01/10 03:12:17;;;;;;;0.95;0.80;;;;;;;;;;5039986;28;20212;-51
2022/01/10 03:14:43;;;;;;;1.08;0.70;;;;;;;;;;5045787;28;20187;-49
2022/01/10 03:17:10;;;;;;;2.53;0.93;;;;;;;;;;5036981;28;20180;-50
2022/01/10 03:19:37;;;;;;;1.60;1.00;;;;;;;;;;5049012;28;20413;-50
2022/01/10 03:22:03;;;;;;;0.90;0.70;;;;;;;;;;5033176;28;20183;-50
2022/01/10 03:24:30;;;;;;;0.90;0.70;;;;;;;;;;5039828;28;20649;-49
2022/01/10 03:26:56;;;;;;;0.65;0.65;;;;;;;;;;5042093;28;20202;-50
2022/01/10 03:29:22;;;;;;;1.00;0.88;;;;;;;;;;5039150;28;20192;-50
2022/01/10 03:31:48;;;;;;;0.68;0.68;;;;;;;;;;5041153;28;20270;-50
2022/01/10 03:34:14;;;;;;;0.80;0.80;;;;;;;;;;5043378;28;20261;-50
2022/01/10 03:36:40;;;;;;;1.25;0.85;;;;;;;;;;5049725;28;20857;-50
2022/01/10 03:39:07;;;;;;;0.75;0.75;;;;;;;;;;5036005;28;20222;-49
2022/01/10 03:41:35;;;;;;;1.42;0.90;;;;;;;;;;5039315;28;20198;-50
2022/01/10 03:44:01;;;;;;;0.82;0.70;;;;;;;;;;5037198;28;20210;-49
2022/01/10 03:46:28;;;;;;;1.27;0.73;;;;;;;;;;5038996;28;20282;-50
2022/01/10 03:48:54;;;;;;;1.20;0.80;;;;;;;;;;5035366;28;20208;-50
2022/01/10 03:51:21;;;;;;;0.63;0.63;;;;;;;;;;5048436;28;20192;-50
2022/01/10 03:53:47;;;;;;;1.00;0.90;;;;;;;;;;5028105;28;20209;-50
2022/01/10 03:56:13;;;;;;;1.05;0.80;;;;;;;;;;5041535;28;20667;-50
2022/01/10 03:58:39;;;;;;;1.05;0.80;;;;;;;;;;5035708;28;20220;-50
2022/01/10 04:01:08;;;;;;;0.68;0.68;;;;;;;;;;5040125;28;20201;-50
2022/01/10 04:03:34;;;;;;;1.02;0.70;;;;;;;;;;5043595;28;20221;-50
2022/01/10 04:06:00;;;;;;;0.95;0.85;;;;;;;;;;5033559;28;20203;-50
2022/01/10 04:08:26;;;;;;;0.95;0.93;;;;;;;;;;5032931;28;20606;-50
2022/01/10 04:10:53;;;;;;;0.63;0.60;;;;;;;;;;5048721;28;20184;-49
2022/01/10 04:13:19;;;;;;;0.70;0.70;;;;;;;;;;5032712;28;20179;-49
2022/01/10 04:15:45;;;;;;;0.68;0.68;;;;;;;;;;5026993;28;20567;-50
2022/01/10 04:18:11;;;;;;;0.73;0.68;;;;;;;;;;5053055;28;20183;-49
2022/01/10 04:20:37;;;;;;;0.98;0.70;;;;;;;;;;5033846;28;20255;-50
2022/01/10 04:23:03;;;;;;;0.55;0.55;;;;;;;;;;5037772;28;20176;-50
2022/01/10 04:25:29;;;;;;;0.93;0.77;;;;;;;;;;5031447;28;20214;-50
2022/01/10 04:27:55;;;;;;;0.70;0.70;;;;;;;;;;5032826;28;20171;-50
2022/01/10 04:30:21;;;;;;;2.05;0.85;;;;;;;;;;5035553;28;20452;-50
2022/01/10 04:32:47;;;;;;;0.82;0.80;;;;;;;;;;5037787;28;20191;-51
2022/01/10 04:35:13;;;;;;;1.20;0.90;;;;;;;;;;5032443;28;20202;-50
2022/01/10 04:37:39;;;;;;;0.63;0.63;;;;;;;;;;5038563;28;20227;-49
2022/01/10 04:40:07;;;;;;;1.05;0.80;;;;;;;;;;5041373;28;20203;-49
2022/01/10 04:42:33;;;;;;;1.40;0.60;;;;;;;;;;5042587;28;20457;-50
2022/01/10 04:44:59;;;;;;;1.13;0.68;;;;;;;;;;5019023;28;20181;-50
2022/01/10 04:47:25;;;;;;;0.80;0.80;;;;;;;;;;5038654;28;20563;-50
2022/01/10 04:52:27;;;;;;;0.93;0.80;;;;;;;;;;5037481;28;20183;-50
2022/01/10 04:54:53;;;;;;;1.00;0.70;;;;;;;;;;5025161;28;20262;-50
2022/01/10 04:57:19;;;;;;;1.25;1.00;;;;;;;;;;5029149;28;20227;-49
2022/01/10 04:59:45;;;;;;;1.15;0.90;;;;;;;;;;5038005;28;20172;-49
2022/01/10 05:02:11;;;;;;;1.48;0.90;;;;;;;;;;5044596;28;20611;-50
2022/01/10 05:04:38;;;;;;;0.80;0.77;;;;;;;;;;5027499;28;20571;-50
2022/01/10 05:07:04;;;;;;;1.05;0.88;;;;;;;;;;5038917;28;20203;-50
2022/01/10 05:09:30;;;;;;;0.90;0.90;;;;;;;;;;5036074;28;20177;-50
2022/01/10 05:11:56;;;;;;;1.63;0.75;;;;;;;;;;5044982;28;20622;-50
2022/01/10 05:14:23;;;;;;;1.75;0.70;;;;;;;;;;5031671;28;20602;-50
2022/01/10 05:16:49;;;;;;;1.67;1.13;;;;;;;;;;5045030;28;20195;-51
2022/01/10 05:19:15;;;;;;;1.65;1.20;;;;;;;;;;5045645;28;20561;-51
2022/01/10 05:21:41;;;;;;;4.40;1.30;;;;;;;;;;5032499;28;20577;-50
2022/01/10 05:24:07;;;;;;;4.93;1.13;;;;;;;;;;5033270;28;20227;-51
2022/01/10 05:26:34;;;;;;;4.50;1.20;;;;;;;;;;5038667;28;20686;-50
2022/01/10 05:29:01;;;;;;;2.42;1.20;;;;;;;;;;5032526;28;20270;-51
2022/01/10 05:31:33;;;;;;;3.75;1.50;;;;;;;;;;5037543;28;20179;-50
2022/01/10 05:33:59;;;;;;;4.80;1.42;;;;;;;;;;5039180;28;20211;-51
2022/01/10 05:36:25;;;;;;;4.93;1.60;;;;;;;;;;5035750;28;20191;-50
2022/01/10 05:38:52;;;;;;;6.65;1.50;;;;;;;;;;5035827;28;20516;-50
2022/01/10 05:41:21;;;;;;;2.78;1.55;;;;;;;;;;5035061;28;20171;-50
2022/01/10 05:43:47;;;;;;;3.30;1.23;;;;;;;;;;5045075;28;20246;-50
2022/01/10 05:46:16;;;;;;;2.92;1.35;;;;;;;;;;5023788;28;20215;-51
2022/01/10 05:48:46;;;;;;;2.10;1.30;;;;;;;;;;5034057;28;20567;-50
2022/01/10 05:51:13;;;;;;;6.97;1.38;;;;;;;;;;5047528;28;20211;-50
2022/01/10 05:53:39;;;;;;;5.32;1.65;;;;;;;;;;5028216;28;20180;-54
2022/01/10 05:56:05;;;;;;;5.30;1.75;;;;;;;;;;5045959;28;20217;-50
2022/01/10 05:58:31;;;;;;;6.10;1.60;;;;;;;;;;5033435;28;20206;-51
2022/01/10 06:00:57;;;;;;;5.00;1.30;;;;;;;;;;5040515;28;20218;-52
2022/01/10 06:03:23;;;;;;;9.98;1.95;;;;;;;;;;5039493;28;20233;-48
2022/01/10 06:05:49;;;;;;;4.13;1.38;;;;;;;;;;5046087;28;20207;-48
2022/01/10 06:08:15;;;;;;;8.65;1.55;;;;;;;;;;5041052;28;20258;-48
2022/01/10 06:10:41;;;;;;;6.00;1.70;;;;;;;;;;5041684;28;20283;-49
2022/01/10 06:13:07;;;;;;;4.95;1.45;;;;;;;;;;5041992;28;20187;-48
2022/01/10 06:15:33;;;;;;;6.65;1.50;;;;;;;;;;5039194;28;20211;-48
2022/01/10 06:17:59;;;;;;;5.32;1.30;;;;;;;;;;5036794;28;20201;-48
2022/01/10 06:20:25;;;;;;;5.43;1.85;;;;;;;;;;5039454;28;20183;-48
2022/01/10 06:22:51;;;;;;;4.32;1.90;;;;;;;;;;5041846;28;20286;-48
2022/01/10 06:25:18;;;;;;;5.53;1.60;;;;;;;;;;5041686;28;20293;-48
2022/01/10 06:27:45;;;;;;;2.92;1.40;;;;;;;;;;5047410;28;20183;-48
2022/01/10 06:30:11;;;;;;;4.35;1.38;;;;;;;;;;5039701;28;20179;-48
2022/01/10 06:32:37;;;;;;;2.15;1.45;;;;;;;;;;5036391;28;20211;-48
2022/01/10 06:35:04;;;;;;;5.20;1.83;;;;;;;;;;5043017;28;20171;-48
2022/01/10 06:37:30;;;;;;;5.43;1.70;;;;;;;;;;5041794;28;20175;-48
2022/01/10 06:39:56;;;;;;;6.60;1.88;;;;;;;;;;5055900;28;20207;-48
2022/01/10 06:42:22;;;;;;;3.05;1.33;;;;;;;;;;5050429;28;20202;-48
2022/01/10 06:44:48;;;;;;;4.55;2.03;;;;;;;;;;5044627;28;20183;-48
2022/01/10 06:47:14;;;;;;;3.80;1.58;;;;;;;;;;5035074;28;20525;-48
2022/01/10 06:49:40;;;;;;;3.70;1.92;;;;;;;;;;5038976;28;20176;-48
2022/01/10 06:52:06;;;;;;;4.13;1.58;;;;;;;;;;5042505;28;20455;-48
2022/01/10 06:54:32;;;;;;;2.60;1.38;;;;;;;;;;5045242;28;20185;-48
2022/01/10 06:56:58;;;;;;;3.22;1.40;;;;;;;;;;5040014;28;20191;-48
2022/01/10 06:59:25;;;;;;;5.43;1.52;;;;;;;;;;5040432;28;20179;-48
2022/01/10 07:01:52;;;;;;;6.32;2.13;;;;;;;;;;5038769;28;20458;-48
2022/01/10 07:04:18;;;;;;;2.58;1.60;;;;;;;;;;5038947;28;20215;-48
2022/01/10 07:06:44;;;;;;;4.25;1.42;;;;;;;;;;5040117;28;20199;-48
2022/01/10 07:09:10;;;;;;;3.97;1.60;;;;;;;;;;5049148;28;20186;-48
2022/01/10 07:11:37;;;;;;;2.90;1.50;;;;;;;;;;5051025;28;20188;-48
2022/01/10 07:14:04;;;;;;;2.75;1.35;;;;;;;;;;5045652;28;20586;-49
2022/01/10 07:16:30;;;;;;;3.25;1.40;;;;;;;;;;5049570;28;20183;-49
2022/01/10 07:18:56;;;;;;;2.72;1.52;;;;;;;;;;5045355;28;20225;-48
2022/01/10 07:21:22;;;;;;;2.58;1.65;;;;;;;;;;5048392;28;20205;-48
2022/01/10 07:23:48;;;;;;;2.42;1.45;;;;;;;;;;5044236;28;20577;-48
2022/01/10 07:26:14;;;;;;;2.53;1.40;;;;;;;;;;5030515;28;20302;-48
2022/01/10 07:28:40;;;;;;;2.55;1.50;;;;;;;;;;5044229;28;20465;-48
2022/01/10 07:31:07;;;;;;;2.55;1.67;;;;;;;;;;5040026;28;20725;-48
2022/01/10 07:33:32;;;;;;;5.07;1.55;;;;;;;;;;5043231;28;20171;-49
2022/01/10 07:35:58;;;;;;;2.40;1.45;;;;;;;;;;5050262;28;20190;-48
2022/01/10 07:38:25;;;;;;;2.33;1.55;;;;;;;;;;5038264;28;20589;-49
2022/01/10 07:40:51;;;;;;;4.18;1.50;;;;;;;;;;5051309;28;20316;-48
2022/01/10 07:43:17;;;;;;;2.55;1.40;;;;;;;;;;5033796;28;20194;-48
2022/01/10 07:45:43;;;;;;;2.05;1.38;;;;;;;;;;5046058;28;20586;-49
2022/01/10 07:48:09;;;;;;;2.95;1.40;;;;;;;;;;5034672;28;20184;-48
2022/01/10 07:50:35;;;;;;;3.40;1.50;;;;;;;;;;5027266;28;20196;-48
2022/01/10 07:53:02;;;;;;;2.95;1.50;;;;;;;;;;5040812;28;20225;-48
2022/01/10 07:55:28;;;;;;;2.63;1.33;;;;;;;;;;5029297;28;21870;-49
2022/01/10 07:57:54;;;;;;;3.05;1.65;;;;;;;;;;5022052;28;20188;-48
2022/01/10 08:00:20;;;;;;;2.40;1.40;;;;;;;;;;5040888;28;20190;-48
2022/01/10 08:02:46;;;;;;;2.75;1.52;;;;;;;;;;5044290;28;20209;-47
2022/01/10 08:05:12;;;;;;;3.08;1.60;;;;;;;;;;5032759;28;20179;-48
2022/01/10 08:07:38;;;;;;;1.55;1.40;;;;;;;;;;5037839;28;20180;-48
2022/01/10 08:10:04;;;;;;;3.40;1.40;;;;;;;;;;5053371;28;20218;-48
2022/01/10 08:12:30;;;;;;;3.35;1.55;;;;;;;;;;5020694;28;20555;-48
2022/01/10 08:14:56;;;;;;;3.50;1.45;;;;;;;;;;5048589;28;20573;-48
2022/01/10 08:17:22;;;;;;;1.75;1.50;;;;;;;;;;5041748;28;20183;-48
2022/01/10 08:19:48;;;;;;;2.17;1.40;;;;;;;;;;5049864;28;20413;-48
2022/01/10 08:22:14;;;;;;;1.52;1.20;;;;;;;;;;5033722;28;20185;-48
2022/01/10 08:24:40;;;;;;;2.20;1.70;;;;;;;;;;5051332;28;20186;-48
2022/01/10 08:27:06;;;;;;;2.42;1.48;;;;;;;;;;5033563;28;20215;-48
2022/01/10 08:29:32;;;;;;;1.73;1.52;;;;;;;;;;5042557;28;20183;-48
2022/01/10 08:31:59;;;;;;;1.90;1.25;;;;;;;;;;5040399;28;20177;-48
2022/01/10 08:34:25;;;;;;;3.40;1.45;;;;;;;;;;5048903;28;20164;-48
2022/01/10 08:36:52;;;;;;;1.88;1.63;;;;;;;;;;5035744;28;20218;-48
2022/01/10 08:39:18;;;;;;;2.20;1.80;;;;;;;;;;5042995;28;20189;-48
2022/01/10 08:41:44;;;;;;;2.28;1.60;;;;;;;;;;5036319;28;20192;-48
2022/01/10 08:44:11;;;;;;;1.73;1.30;;;;;;;;;;5036089;28;20183;-48
2022/01/10 08:46:37;;;;;;;3.60;1.77;;;;;;;;;;5027918;28;20350;-48
2022/01/10 08:49:03;;;;;;;2.00;1.38;;;;;;;;;;5044167;28;20266;-48
2022/01/10 08:51:29;;;;;;;1.85;1.38;;;;;;;;;;5047456;28;20183;-48
2022/01/10 08:53:55;;;;;;;2.35;1.33;;;;;;;;;;5031796;28;20196;-48
2022/01/10 08:56:22;;;;;;;1.85;1.40;;;;;;;;;;5030510;28;20524;-48
2022/01/10 08:58:48;;;;;;;2.42;1.50;;;;;;;;;;5036123;28;20184;-48
2022/01/10 09:01:14;;;;;;;5.43;1.60;;;;;;;;;;5029247;28;20192;-48
2022/01/10 09:03:40;;;;;;;3.63;1.92;;;;;;;;;;5035759;28;20452;-48
2022/01/10 09:06:06;;;;;;;3.92;1.35;;;;;;;;;;5042081;28;20204;-48
2022/01/10 09:08:35;;;;;;;1.58;1.30;;;;;;;;;;5037448;28;20188;-48
2022/01/10 09:11:01;;;;;;;3.20;1.63;;;;;;;;;;5033656;28;20179;-48
2022/01/10 09:13:27;;;;;;;2.00;1.48;;;;;;;;;;5035677;28;20199;-48
2022/01/10 09:15:53;;;;;;;2.58;1.60;;;;;;;;;;5042883;28;20183;-49
2022/01/10 09:18:19;;;;;;;2.20;1.50;;;;;;;;;;5042369;28;20280;-48
2022/01/10 09:20:46;;;;;;;2.15;1.40;;;;;;;;;;5033471;28;20636;-48
2022/01/10 09:23:13;;;;;;;2.63;1.40;;;;;;;;;;5051058;28;20198;-48
2022/01/10 09:25:39;;;;;;;1.38;1.13;;;;;;;;;;5041760;28;20297;-48
2022/01/10 09:28:05;;;;;;;1.90;1.52;;;;;;;;;;5038806;28;20187;-48
2022/01/10 09:30:31;;;;;;;2.15;1.30;;;;;;;;;;5029185;28;20172;-48
2022/01/10 09:32:57;;;;;;;1.45;1.35;;;;;;;;;;5043711;28;20762;-48
2022/01/10 09:35:24;;;;;;;2.90;1.60;;;;;;;;;;5043097;28;20179;-48
2022/01/10 09:37:50;;;;;;;1.83;1.50;;;;;;;;;;5032572;28;20192;-48
2022/01/10 09:40:16;;;;;;;2.53;1.30;;;;;;;;;;5038596;28;20270;-48
2022/01/10 09:42:42;;;;;;;2.20;1.27;;;;;;;;;;5044385;28;20187;-48
2022/01/10 09:45:09;;;;;;;2.67;1.30;;;;;;;;;;5042373;28;20179;-48
2022/01/10 09:47:35;;;;;;;1.50;1.30;;;;;;;;;;5030817;28;20175;-48
2022/01/10 09:50:01;;;;;;;1.70;1.20;;;;;;;;;;5025518;28;20493;-53
2022/01/10 09:52:27;;;;;;;2.05;1.60;;;;;;;;;;5040509;28;20377;-50
2022/01/10 09:54:53;;;;;;;4.63;1.90;;;;;;;;;;5038910;28;20183;-51
2022/01/10 09:57:22;;;;;;;6.03;2.13;;;;;;;;;;5028801;28;20461;-54
2022/01/10 09:59:49;;;;;;;4.07;1.52;;;;;;;;;;5037134;28;20195;-50
2022/01/10 10:02:15;;;;;;;3.45;1.75;;;;;;;;;;5046096;28;20191;-52
2022/01/10 10:04:42;;;;;;;4.07;1.73;;;;;;;;;;5036745;28;20191;-55
2022/01/10 10:07:08;;;;;;;7.82;1.50;;;;;;;;;;5031427;28;20249;-51
2022/01/10 10:09:35;;;;;;;2.55;1.52;;;;;;;;;;5043512;28;20800;-51
2022/01/10 10:12:01;;;;;;;8.02;1.50;;;;;;;;;;5028633;28;20171;-51
2022/01/10 10:14:27;;;;;;;2.95;1.85;;;;;;;;;;5038942;28;20763;-50
2022/01/10 10:16:56;;;;;;;9.25;1.98;;;;;;;;;;5031178;28;20510;-53
2022/01/10 10:19:26;;;;;;;6.82;1.67;;;;;;;;;;5040917;28;20542;-59
2022/01/10 10:21:53;;;;;;;7.95;1.73;;;;;;;;;;5040641;28;20673;-54
2022/01/10 10:24:20;;;;;;;5.78;1.75;;;;;;;;;;5037352;28;20213;-54
2022/01/10 10:26:46;;;;;;;7.03;1.70;;;;;;;;;;5025909;28;20258;-54
2022/01/10 10:29:17;;;;;;;3.83;1.50;;;;;;;;;;5031435;28;20190;-54
2022/01/10 10:31:53;;;;;;;5.43;1.55;;;;;;;;;;5035634;28;20203;-53
2022/01/10 10:34:21;;;;;;;4.97;1.75;;;;;;;;;;5039523;28;20191;-53
2022/01/10 10:36:58;;;;;;;3.83;1.52;;;;;;;;;;5038460;28;20188;-54
2022/01/10 10:39:26;;;;;;;2.65;1.50;;;;;;;;;;5032456;28;20175;-54
2022/01/10 10:41:56;;;;;;;3.45;1.50;;;;;;;;;;5045468;28;20187;-54
2022/01/10 10:44:21;;;;;;;2.80;1.60;;;;;;;;;;5041539;28;20418;-54
2022/01/10 10:46:50;;;;;;;7.05;1.50;;;;;;;;;;5027544;28;20215;-54
2022/01/10 10:49:19;;;;;;;2.55;1.35;;;;;;;;;;5022880;28;20200;-53
2022/01/10 10:51:45;;;;;;;4.28;1.65;;;;;;;;;;5030526;28;20182;-53
2022/01/10 10:54:11;;;;;;;2.97;1.17;;;;;;;;;;5037082;28;20258;-53
2022/01/10 10:56:43;;;;;;;3.47;1.25;;;;;;;;;;5035010;28;20250;-54
2022/01/10 10:59:11;;;;;;;3.53;1.30;;;;;;;;;;5033291;28;20182;-53
2022/01/10 11:01:37;;;;;;;4.53;1.52;;;;;;;;;;5027207;28;20183;-53
2022/01/10 11:04:04;;;;;;;1.48;1.05;;;;;;;;;;5036301;28;20203;-53
2022/01/10 11:06:31;;;;;;;2.22;1.25;;;;;;;;;;5020534;28;20207;-53
2022/01/10 11:08:58;;;;;;;2.78;1.17;;;;;;;;;;5036122;28;20202;-54
2022/01/10 11:11:24;;;;;;;3.88;1.40;;;;;;;;;;5041879;28;20179;-54
2022/01/10 11:13:56;;;;;;;3.50;1.40;;;;;;;;;;5035847;28;20259;-53
2022/01/10 11:16:23;;;;;;;3.30;1.45;;;;;;;;;;5020814;28;20180;-53
2022/01/10 11:18:50;;;;;;;2.00;1.30;;;;;;;;;;5041710;28;20452;-53
2022/01/10 11:21:16;;;;;;;3.63;1.50;;;;;;;;;;5027795;28;20582;-54
2022/01/10 11:23:44;;;;;;;2.60;1.20;;;;;;;;;;5044250;28;20208;-54
2022/01/10 11:26:10;;;;;;;2.35;1.30;;;;;;;;;;5035343;28;20679;-54
2022/01/10 11:28:47;;;;;;;3.53;1.20;;;;;;;;;;5049549;28;20266;-54
2022/01/10 11:31:18;;;;;;;6.32;1.63;;;;;;;;;;5048486;28;20172;-54
2022/01/10 11:33:43;;;;;;;3.10;1.52;;;;;;;;;;5033385;28;20179;-54
2022/01/10 11:36:10;;;;;;;1.58;1.05;;;;;;;;;;5041628;28;20256;-54
2022/01/10 11:38:48;;;;;;;2.95;1.30;;;;;;;;;;5044105;28;20214;-54
2022/01/10 11:41:14;;;;;;;4.95;1.40;;;;;;;;;;5022322;28;20257;-54
2022/01/10 11:43:50;;;;;;;4.68;1.40;;;;;;;;;;5039685;28;20641;-54
2022/01/10 11:46:24;;;;;;;2.40;1.20;;;;;;;;;;5032549;28;20208;-54
2022/01/10 11:48:50;;;;;;;2.55;1.20;;;;;;;;;;5029183;28;20267;-54
2022/01/10 11:51:24;;;;;;;2.95;1.40;;;;;;;;;;5036673;28;20168;-54
2022/01/10 11:53:52;;;;;;;1.35;1.08;;;;;;;;;;5044933;28;20253;-54
2022/01/10 11:56:28;;;;;;;2.00;1.10;;;;;;;;;;5035512;28;20255;-53
2022/01/10 11:59:07;;;;;;;1.52;1.17;;;;;;;;;;5041662;28;20219;-53
2022/01/10 12:01:34;;;;;;;1.85;1.20;;;;;;;;;;5032375;28;20183;-54
2022/01/10 12:04:00;;;;;;;1.13;0.90;;;;;;;;;;5037033;28;20224;-54
2022/01/10 12:06:26;;;;;;;1.88;1.25;;;;;;;;;;5032294;28;20243;-54
2022/01/10 12:08:56;;;;;;;2.55;1.42;;;;;;;;;;5050508;28;20181;-53
2022/01/10 12:11:24;;;;;;;1.70;1.15;;;;;;;;;;5033462;28;20178;-53
2022/01/10 12:13:54;;;;;;;1.40;1.30;;;;;;;;;;5042288;28;20276;-54
2022/01/10 12:16:21;;;;;;;4.25;1.55;;;;;;;;;;5020158;28;20323;-52
2022/01/10 12:18:47;;;;;;;8.20;1.80;;;;;;;;;;5029644;28;20180;-53
2022/01/10 12:21:13;;;;;;;6.95;1.63;;;;;;;;;;5038830;28;20229;-55
2022/01/10 12:23:40;;;;;;;6.28;1.70;;;;;;;;;;5042312;28;20222;-49
2022/01/10 12:26:06;;;;;;;9.23;1.90;;;;;;;;;;5034998;28;20552;-50
2022/01/10 12:28:32;;;;;;;3.67;1.58;;;;;;;;;;5040920;28;20481;-51
2022/01/10 12:31:02;;;;;;;4.85;1.70;;;;;;;;;;5032823;28;20175;-55
2022/01/10 12:33:31;;;;;;;5.85;1.83;;;;;;;;;;5050733;28;20538;-55
2022/01/10 12:35:57;;;;;;;5.18;1.67;;;;;;;;;;5041146;28;20194;-54
2022/01/10 12:38:24;;;;;;;3.17;1.80;;;;;;;;;;5043760;28;20270;-50
2022/01/10 12:40:53;;;;;;;3.83;1.88;;;;;;;;;;5028222;28;20214;-53
2022/01/10 12:43:19;;;;;;;4.22;1.40;;;;;;;;;;5041260;28;20179;-57
2022/01/10 12:45:46;;;;;;;7.10;1.60;;;;;;;;;;5033157;28;20438;-52
2022/01/10 12:48:12;;;;;;;7.13;1.52;;;;;;;;;;5039452;28;20242;-53
2022/01/10 12:50:39;;;;;;;3.55;1.40;;;;;;;;;;5041719;28;20854;-50
2022/01/10 12:53:05;;;;;;;5.18;1.80;;;;;;;;;;5042036;28;20179;-52
2022/01/10 12:55:31;;;;;;;5.72;1.60;;;;;;;;;;5043420;28;20194;-54
2022/01/10 12:57:57;;;;;;;7.15;1.30;;;;;;;;;;5035705;28;21583;-54
2022/01/10 13:00:23;;;;;;;5.05;1.45;;;;;;;;;;5026943;28;20645;-52
2022/01/10 13:02:50;;;;;;;4.78;1.70;;;;;;;;;;5049927;28;20234;-52
2022/01/10 13:05:17;;;;;;;5.88;1.77;;;;;;;;;;5025273;28;20525;-52
2022/01/10 13:07:44;;;;;;;3.28;1.55;;;;;;;;;;5036627;28;20184;-51
2022/01/10 13:10:18;;;;;;;2.55;1.33;;;;;;;;;;5044215;28;20183;-52
2022/01/10 13:12:47;;;;;;;5.35;1.60;;;;;;;;;;5035915;28;20176;-54
2022/01/10 13:15:14;;;;;;;4.65;1.52;;;;;;;;;;5032445;28;20458;-54
2022/01/10 13:17:51;;;;;;;5.07;1.45;;;;;;;;;;5044655;28;20172;-50
2022/01/10 13:20:17;;;;;;;5.53;1.70;;;;;;;;;;5024965;28;20257;-55
2022/01/10 13:22:43;;;;;;;5.10;1.30;;;;;;;;;;5041522;28;20757;-51
2022/01/10 13:25:31;;;;;;;7.47;2.08;;;;;;;;;;5036948;28;20203;-51
2022/01/10 13:28:01;;;;;;;3.28;1.38;;;;;;;;;;5035025;28;20207;-52
2022/01/10 13:30:28;;;;;;;3.63;1.40;;;;;;;;;;5031434;28;20192;-55
2022/01/10 13:32:55;;;;;;;4.75;1.60;;;;;;;;;;5031475;28;20234;-55
2022/01/10 13:35:21;;;;;;;5.43;1.75;;;;;;;;;;5030003;28;20199;-55
2022/01/10 13:37:48;;;;;;;5.20;1.40;;;;;;;;;;5025580;28;20192;-55
2022/01/10 13:40:22;;;;;;;7.60;2.05;;;;;;;;;;5025184;28;20173;-55
2022/01/10 13:42:50;;;;;;;5.97;1.80;;;;;;;;;;5032388;28;20579;-55
2022/01/10 13:45:16;;;;;;;6.60;1.67;;;;;;;;;;5030286;28;20179;-55
2022/01/10 13:47:48;;;;;;;4.85;1.58;;;;;;;;;;5039548;28;20236;-55
2022/01/10 13:50:19;;;;;;;5.50;1.60;;;;;;;;;;5021679;28;20204;-55
2022/01/10 13:52:58;;;;;;;4.28;1.42;;;;;;;;;;5039801;28;20357;-55
2022/01/10 13:55:24;;;;;;;4.40;1.83;;;;;;;;;;5047365;28;20723;-55
2022/01/10 13:57:50;;;;;;;4.70;1.52;;;;;;;;;;5043752;28;20206;-55
2022/01/10 14:00:18;;;;;;;3.70;1.70;;;;;;;;;;5035879;28;20190;-56
2022/01/10 14:02:44;;;;;;;5.10;1.92;;;;;;;;;;5027350;28;20279;-55
2022/01/10 14:05:27;;;;;;;4.60;1.70;;;;;;;;;;5019199;28;20184;-55
2022/01/10 14:07:57;;;;;;;2.97;1.98;;;;;;;;;;5031584;28;20193;-55
2022/01/10 14:10:23;;;;;;;5.32;2.15;;;;;;;;;;5030713;28;20254;-55
2022/01/10 14:12:50;;;;;;;6.35;2.10;;;;;;;;;;5031332;28;20192;-55
2022/01/10 14:15:26;;;;;;;5.07;1.85;;;;;;;;;;5035964;28;20171;-54
2022/01/10 14:17:54;;;;;;;3.38;1.80;;;;;;;;;;5041753;28;20174;-54
2022/01/10 14:20:20;;;;;;;5.32;1.90;;;;;;;;;;5031034;28;20176;-55
2022/01/10 14:22:47;;;;;;;5.10;1.77;;;;;;;;;;5031921;28;20188;-55
2022/01/10 14:25:16;;;;;;;5.45;2.15;;;;;;;;;;5034780;28;20310;-56
2022/01/10 14:27:43;;;;;;;5.13;2.25;;;;;;;;;;5035569;28;20509;-55
2022/01/10 14:30:09;;;;;;;5.03;2.28;;;;;;;;;;5040345;28;20259;-55
2022/01/10 14:32:35;;;;;;;6.40;2.03;;;;;;;;;;5026677;28;20496;-54
2022/01/10 14:35:01;;;;;;;6.53;2.70;;;;;;;;;;5036666;28;20258;-55
2022/01/10 14:37:27;;;;;;;5.45;2.35;;;;;;;;;;5030254;28;20258;-55
2022/01/10 14:39:54;;;;;;;4.03;2.35;;;;;;;;;;5035981;28;20192;-55
2022/01/10 14:42:20;;;;;;;4.93;2.20;;;;;;;;;;5045720;28;20210;-55
2022/01/10 14:44:46;;;;;;;6.45;2.17;;;;;;;;;;5027233;28;20210;-55
2022/01/10 14:47:12;;;;;;;4.95;2.22;;;;;;;;;;5039204;28;20290;-54
2022/01/10 14:49:40;;;;;;;6.97;2.28;;;;;;;;;;5034131;28;20564;-55
2022/01/10 14:52:06;;;;;;;4.90;2.50;;;;;;;;;;5031235;28;20172;-55
2022/01/10 14:54:33;;;;;;;4.18;2.10;;;;;;;;;;5035662;28;20185;-55
2022/01/10 14:56:59;;;;;;;3.38;1.92;;;;;;;;;;5043706;28;20187;-55